Superior, MT

4:36 AM MDT on August 31, 2014 (GMT -0600)
RAWS ST. REGIS MT US | Change Station
CLOSE
Current Station
Personal Weather Station
Location: Saint Regis, MT
Elevation: 2645 ft
Nearby Weather Stations

Elev 2645 ft 47.31 °N, 115.11 °W | Updated 34 minutes ago

Overcast
Overcast
54 °F
Feels Like 54 °F
N
2
Wind Variable Wind from NNE
Gusts 4.0 mph

Today
High -- | Low -- °F
--% Chance of Precip.
Yesterday
High -- | Low -- °F
Precip. -- in
6:57 AM 8:21 PM
Waxing Crescent, 29% visible
Pressure 29.87 in
Visibility 10.0 miles
Clouds Overcast 6000 ft
Dew Point 52 °F
Humidity 94%
Rainfall 0.00 in
Snow Depth Not available.
UV 0 out of 12
Pollen 8.00 out of 12
Air Quality Not available.
Flu Activity Not available.
METAR KMSO 310953Z AUTO 32003KT 10SM OVC060 13/09 A2992 RMK AO2 SLP115 T01280094 $

More Conditions Fewer Conditions

Pressure 29.87 in
Visibility 10.0 miles
Clouds Overcast 6000 ft
Dew Point 52 °F
Humidity 94%
Rainfall 0.00 in
Snow Depth Not available.
UV 0 out of 12
Pollen 8.00 out of 12
Air Quality Not available.
Flu Activity Not available.
METAR KMSO 310953Z AUTO 32003KT 10SM OVC060 13/09 A2992 RMK AO2 SLP115 T01280094 $

More Conditions Fewer Conditions

10-Day Weather Forecast

Almanac

Astronomy

Aug. 31, 2014 Rise Set
Actual Time 6:57 AM MDT 8:21 PM MDT
Civil Twilight 6:25 AM MDT 8:52 PM MDT
Nautical Twilight 5:47 AM MDT 9:31 PM MDT
Astronomical Twilight 5:05 AM MDT 10:12 PM MDT
Moon 1:12 PM MDT 11:13 PM MDT
Length of Visible Light 14h 27m
Length of Day
13h 23m
Tomorrow will be 3m 16s shorter.
Waxing Crescent, 29% of the Moon is Illuminated
Today
Waxing Crescent
Sep 2
First Quarter
Sep 8
Full
Sep 15
Last Quarter
Sep 24
New

Today's Extremes

State Highs State Lows

Community

WunderPhotos

Upload Photos

1,748,834 photos uploaded!

Nearby

Snow Depth

Station Depth Elevation
Stuart Mountain 0 in 7400 ft
North Fork Jocko 0 in 6330 ft
Bisson Creek 0 in 4925 ft
Moss Peak 0 in 6780 ft
Kraft Creek 0 in 4750 ft

Earthquake Activity

City Distance Mag. Time & Date
No recent earthquake activity has been reported nearby.
Minimum magnitude displayed is 2.5.

Coastal Water Temperatures

Place Temperature
No Stations Reporting

Nearby Weather Stations